Time;durP1;ratioP1;P1;durP2;ratioP2;P2;SDS_P1;SDS_P2;PMS_P1;PMS_P2;Temp;Humidity;BMP_temperature;BMP_pressure;BME280_temperature;BME280_humidity;BME280_pressure;Samples;Min_cycle;Max_cycle;Signal;HPM_P1;HPM_P2
2024/03/14 00:00:48;;;;;;;;;;;;;;;15.54;46.95;100370.88;5089086;28;1113;-47
2024/03/14 00:03:14;;;;;;;;;;;;;;;15.33;47.24;100364.59;5096945;28;1034;-42
2024/03/14 00:05:39;;;;;;;;;;;;;;;15.89;47.89;100367.28;5097133;28;1910;-44
2024/03/14 00:08:05;;;;;;;;;;;;;;;17.10;48.82;100370.75;5096312;28;1194;-44
2024/03/14 00:10:30;;;;;;;;;;;;;;;16.13;49.68;100372.13;5092670;28;1082;-46
2024/03/14 00:12:56;;;;;;;;;;;;;;;15.78;49.22;100365.63;5095447;28;1087;-47
2024/03/14 00:15:22;;;;;;;;;;;;;;;15.65;48.45;100361.53;5067231;28;1079;-43
2024/03/14 00:17:48;;;;;;;;;;;;;;;15.51;47.80;100357.72;5071874;28;1098;-43
2024/03/14 00:20:14;;;;;;;;;;;;;;;16.75;49.26;100361.63;5088903;28;1082;-44
2024/03/14 00:22:40;;;;;;;;;;;;;;;16.25;50.01;100347.09;5078453;28;1221;-48
2024/03/14 00:25:09;;;;;;;;;;;;;;;15.91;49.53;100358.75;5088538;28;1909;-46
2024/03/14 00:27:37;;;;;;;;;;;;;;;15.68;48.70;100350.03;5091245;28;1030;-45
2024/03/14 00:30:03;;;;;;;;;;;;;;;16.59;49.60;100368.31;5088716;28;1133;-45
2024/03/14 00:32:30;;;;;;;;;;;;;;;16.22;50.20;100353.16;5096551;28;1031;-46
2024/03/14 00:34:55;;;;;;;;;;;;;;;15.87;49.52;100368.66;5090430;28;1129;-45
2024/03/14 00:37:21;;;;;;;;;;;;;;;15.76;48.74;100361.50;5082717;28;1229;-43
2024/03/14 00:39:46;;;;;;;;;;;;;;;15.67;47.79;100367.56;5085064;28;1245;-44
2024/03/14 00:42:13;;;;;;;;;;;;;;;16.63;49.21;100366.66;5094782;28;1058;-45
2024/03/14 00:44:39;;;;;;;;;;;;;;;17.04;49.59;100358.16;5084237;28;1996;-45
2024/03/14 00:47:05;;;;;;;;;;;;;;;16.14;50.11;100361.97;5092739;28;1027;-46
2024/03/14 00:49:30;;;;;;;;;;;;;;;15.87;49.19;100366.72;5096819;28;1106;-45
2024/03/14 00:51:57;;;;;;;;;;;;;;;15.70;48.69;100360.72;5096370;28;1126;-43
2024/03/14 00:54:22;;;;;;;;;;;;;;;15.66;47.65;100357.69;5096546;28;1011;-45
2024/03/14 00:56:48;;;;;;;;;;;;;;;15.62;47.15;100356.59;5096061;28;1117;-44
2024/03/14 00:59:14;;;;;;;;;;;;;;;16.60;49.09;100365.28;5083192;28;1240;-46
2024/03/14 01:01:44;;;;;;;;;;;;;;;15.84;49.67;100371.94;5095246;28;1482;-48
2024/03/14 01:04:10;;;;;;;;;;;;;;;15.67;48.55;100367.56;5096064;28;1114;-47
2024/03/14 01:06:38;;;;;;;;;;;;;;;15.51;48.01;100371.41;5089317;28;1905;-44
2024/03/14 01:09:04;;;;;;;;;;;;;;;15.50;47.27;100378.84;5089771;28;1123;-47
2024/03/14 01:11:29;;;;;;;;;;;;;;;15.39;47.04;100374.47;5094351;28;916;-45
2024/03/14 01:13:55;;;;;;;;;;;;;;;16.63;48.64;100377.63;5095916;28;1050;-44
2024/03/14 01:16:20;;;;;;;;;;;;;;;15.84;49.26;100385.66;5089351;28;1141;-48
2024/03/14 01:18:49;;;;;;;;;;;;;;;15.53;48.79;100383.75;5089267;28;1150;-48
2024/03/14 01:21:15;;;;;;;;;;;;;;;15.47;47.77;100393.06;5071395;28;1004;-46
2024/03/14 01:23:41;;;;;;;;;;;;;;;16.07;48.55;100389.69;5095156;28;1146;-49
2024/03/14 01:26:09;;;;;;;;;;;;;;;15.99;49.60;100385.63;5092826;28;1905;-47
2024/03/14 01:28:35;;;;;;;;;;;;;;;15.68;48.91;100382.91;5094294;28;1123;-46
2024/03/14 01:31:01;;;;;;;;;;;;;;;15.50;48.16;100383.47;5100203;28;1165;-44
2024/03/14 01:33:26;;;;;;;;;;;;;;;15.54;47.74;100385.41;5100501;28;1042;-43
2024/03/14 01:35:58;;;;;;;;;;;;;;;17.03;48.81;100384.00;5097457;28;1014;-48
2024/03/14 01:38:24;;;;;;;;;;;;;;;16.71;50.12;100384.47;5099738;28;1121;-46
2024/03/14 01:40:50;;;;;;;;;;;;;;;16.07;50.06;100379.56;5100179;28;1101;-46
2024/03/14 01:43:15;;;;;;;;;;;;;;;15.83;49.13;100378.53;5099546;28;1156;-47
2024/03/14 01:45:46;;;;;;;;;;;;;;;15.70;48.31;100380.72;5091752;28;1910;-44
2024/03/14 01:48:12;;;;;;;;;;;;;;;15.53;47.65;100385.69;5084949;28;1075;-49
2024/03/14 01:50:39;;;;;;;;;;;;;;;15.37;47.58;100391.16;5090936;28;1142;-44
2024/03/14 01:53:04;;;;;;;;;;;;;;;16.46;49.26;100396.41;5095004;28;1027;-44
2024/03/14 01:55:30;;;;;;;;;;;;;;;16.00;50.10;100391.91;5099894;28;1090;-45
2024/03/14 01:57:58;;;;;;;;;;;;;;;15.70;49.38;100397.16;5099097;28;1120;-43
2024/03/14 02:00:29;;;;;;;;;;;;;;;15.53;48.35;100389.25;5094930;28;1483;-44
2024/03/14 02:02:56;;;;;;;;;;;;;;;15.45;48.11;100389.78;5086018;28;1269;-43
2024/03/14 02:05:27;;;;;;;;;;;;;;;16.79;49.11;100389.34;5089958;28;1902;-48
2024/03/14 02:07:52;;;;;;;;;;;;;;;15.89;49.76;100391.09;5078069;28;1048;-45
2024/03/14 02:10:23;;;;;;;;;;;;;;;15.63;48.79;100393.06;5081149;28;1055;-45
2024/03/14 02:12:49;;;;;;;;;;;;;;;15.49;48.35;100390.88;5087746;28;1148;-44
2024/03/14 02:15:15;;;;;;;;;;;;;;;15.98;48.86;100383.97;5099019;28;1141;-44
2024/03/14 02:17:41;;;;;;;;;;;;;;;16.20;49.71;100388.25;5085996;28;1182;-46
2024/03/14 02:20:14;;;;;;;;;;;;;;;15.71;49.20;100385.09;5087892;28;1119;-42
2024/03/14 02:22:40;;;;;;;;;;;;;;;15.48;48.57;100394.72;5091984;28;1150;-47
2024/03/14 02:25:06;;;;;;;;;;;;;;;15.66;48.21;100401.53;5095808;28;1905;-47
2024/03/14 02:27:34;;;;;;;;;;;;;;;17.12;48.63;100394.38;5079820;28;1126;-46
2024/03/14 02:29:59;;;;;;;;;;;;;;;16.10;49.82;100397.34;5091564;28;1162;-45
2024/03/14 02:32:25;;;;;;;;;;;;;;;15.83;49.03;100394.97;5085150;28;1281;-45
2024/03/14 02:34:51;;;;;;;;;;;;;;;15.51;48.75;100396.91;5098774;28;1093;-43
2024/03/14 02:37:16;;;;;;;;;;;;;;;15.72;48.47;100400.47;5096243;28;1099;-47
2024/03/14 02:39:42;;;;;;;;;;;;;;;17.18;49.01;100399.53;5085806;28;1205;-46
2024/03/14 02:42:11;;;;;;;;;;;;;;;16.16;49.89;100393.50;5099035;28;1007;-44
2024/03/14 02:44:37;;;;;;;;;;;;;;;15.84;48.95;100400.19;5084842;28;1901;-41
2024/03/14 02:47:02;;;;;;;;;;;;;;;16.41;49.56;100403.56;5092008;28;1170;-47
2024/03/14 02:49:28;;;;;;;;;;;;;;;15.86;49.46;100392.47;5091944;28;848;-42
2024/03/14 02:51:54;;;;;;;;;;;;;;;15.66;48.73;100401.53;5071580;28;1072;-44
2024/03/14 02:54:19;;;;;;;;;;;;;;;15.56;47.76;100398.81;5085437;28;1178;-44
2024/03/14 02:56:47;;;;;;;;;;;;;;;16.13;48.45;100401.47;5098530;28;1022;-44
2024/03/14 02:59:13;;;;;;;;;;;;;;;17.41;48.76;100400.72;5096952;28;1138;-46
2024/03/14 03:01:39;;;;;;;;;;;;;;;16.29;50.05;100396.75;5084603;28;1066;-42
2024/03/14 03:04:05;;;;;;;;;;;;;;;15.91;49.23;100397.16;5098445;28;1202;-50
2024/03/14 03:06:33;;;;;;;;;;;;;;;15.77;48.42;100401.50;5097566;28;1906;-44
2024/03/14 03:08:58;;;;;;;;;;;;;;;15.61;47.75;100403.47;5098134;28;1074;-46
2024/03/14 03:11:24;;;;;;;;;;;;;;;15.51;47.25;100407.84;5097802;28;1401;-48
2024/03/14 03:13:50;;;;;;;;;;;;;;;15.40;47.04;100409.81;5090109;28;929;-46
2024/03/14 03:16:15;;;;;;;;;;;;;;;16.88;48.89;100409.63;5084864;28;1209;-46
2024/03/14 03:18:41;;;;;;;;;;;;;;;16.24;49.98;100411.28;5098032;28;1073;-49
2024/03/14 03:21:06;;;;;;;;;;;;;;;15.91;49.10;100406.19;5091857;28;1149;-44
2024/03/14 03:23:32;;;;;;;;;;;;;;;16.56;49.66;100423.78;5090619;28;1123;-42
2024/03/14 03:25:57;;;;;;;;;;;;;;;16.56;49.95;100418.28;5091305;28;1901;-46
2024/03/14 03:28:23;;;;;;;;;;;;;;;16.02;49.51;100425.34;5089752;28;1145;-46
2024/03/14 03:30:49;;;;;;;;;;;;;;;15.87;48.41;100418.00;5097534;28;1129;-44
2024/03/14 03:33:18;;;;;;;;;;;;;;;15.70;47.96;100413.59;5085612;28;1154;-48
2024/03/14 03:35:45;;;;;;;;;;;;;;;16.97;48.89;100422.75;5091413;28;1171;-44
2024/03/14 03:38:13;;;;;;;;;;;;;;;16.38;50.05;100431.56;5084625;28;1099;-46
2024/03/14 03:40:43;;;;;;;;;;;;;;;16.68;50.20;100427.03;5097460;28;1392;-44
2024/03/14 03:43:08;;;;;;;;;;;;;;;17.41;49.08;100430.94;5097142;28;1090;-45
2024/03/14 03:45:34;;;;;;;;;;;;;;;16.38;50.36;100431.56;5096459;28;1894;-45
2024/03/14 03:48:02;;;;;;;;;;;;;;;16.18;49.06;100426.13;5086066;28;1210;-46
2024/03/14 03:50:28;;;;;;;;;;;;;;;15.96;48.27;100427.28;5089647;28;1280;-46
2024/03/14 03:52:53;;;;;;;;;;;;;;;15.86;47.88;100432.78;5091241;28;1068;-42
2024/03/14 03:55:19;;;;;;;;;;;;;;;15.78;47.05;100431.41;5097571;28;1063;-47
2024/03/14 03:57:45;;;;;;;;;;;;;;;16.46;48.76;100434.81;5096513;28;1074;-43
2024/03/14 04:02:55;;;;;;;;;;;;;;;15.83;48.54;100439.66;5079364;28;1066;-47
2024/03/14 04:05:21;;;;;;;;;;;;;;;17.21;49.14;100439.38;5096442;28;1926;-45
2024/03/14 04:07:49;;;;;;;;;;;;;;;16.20;49.92;100430.25;5097199;28;1082;-47
2024/03/14 04:10:15;;;;;;;;;;;;;;;15.92;49.09;100439.91;5097147;28;1074;-44
2024/03/14 04:12:40;;;;;;;;;;;;;;;15.79;47.99;100443.19;5084215;28;1157;-45
2024/03/14 04:15:06;;;;;;;;;;;;;;;17.07;49.25;100440.00;5086460;28;1066;-46
2024/03/14 04:17:33;;;;;;;;;;;;;;;16.21;49.54;100445.59;5096953;28;1074;-50
2024/03/14 04:19:59;;;;;;;;;;;;;;;15.85;49.09;100444.84;5097071;28;889;-51
2024/03/14 04:22:25;;;;;;;;;;;;;;;15.74;48.04;100442.09;5083337;28;1070;-53
2024/03/14 04:24:51;;;;;;;;;;;;;;;15.70;47.18;100446.50;5088979;28;1980;-50
2024/03/14 04:27:18;;;;;;;;;;;;;;;15.94;48.12;100451.44;5090052;28;1245;-47
2024/03/14 04:29:45;;;;;;;;;;;;;;;16.55;49.27;100452.31;5076595;28;1083;-50
2024/03/14 04:32:13;;;;;;;;;;;;;;;15.92;49.00;100445.38;5093061;28;1105;-44
2024/03/14 04:34:40;;;;;;;;;;;;;;;15.75;48.26;100459.38;5096343;28;1030;-50
2024/03/14 04:37:06;;;;;;;;;;;;;;;17.11;48.60;100456.75;5091523;28;1161;-44
2024/03/14 04:39:33;;;;;;;;;;;;;;;16.14;49.76;100455.22;5096600;28;1133;-48
2024/03/14 04:41:59;;;;;;;;;;;;;;;15.86;48.65;100460.22;5083356;28;1079;-46
2024/03/14 04:44:25;;;;;;;;;;;;;;;15.77;47.62;100465.41;5096332;28;1062;-46
2024/03/14 04:46:54;;;;;;;;;;;;;;;15.58;48.11;100465.13;5096146;28;1973;-45
2024/03/14 04:49:21;;;;;;;;;;;;;;;16.31;49.38;100461.19;5085964;28;1071;-51
2024/03/14 04:51:46;;;;;;;;;;;;;;;15.78;49.19;100468.97;5078571;28;1087;-47
2024/03/14 04:54:14;;;;;;;;;;;;;;;15.66;48.37;100474.75;5086471;28;1166;-47
2024/03/14 04:56:40;;;;;;;;;;;;;;;16.76;48.68;100481.34;5092580;28;1178;-47
2024/03/14 04:59:08;;;;;;;;;;;;;;;16.19;49.52;100480.72;5084775;28;1115;-50
2024/03/14 05:01:34;;;;;;;;;;;;;;;15.77;49.20;100478.28;5089358;28;1139;-50
2024/03/14 05:03:59;;;;;;;;;;;;;;;16.87;49.19;100490.38;5096033;28;1232;-50
2024/03/14 05:06:25;;;;;;;;;;;;;;;16.24;49.42;100493.59;5072868;28;1906;-47
2024/03/14 05:08:51;;;;;;;;;;;;;;;15.83;49.13;100488.19;5087937;28;1121;-49
2024/03/14 05:11:16;;;;;;;;;;;;;;;16.75;47.73;100493.44;5090785;28;1062;-48
2024/03/14 05:13:42;;;;;;;;;;;;;;;16.54;48.21;100491.88;5058522;28;1037;-47
2024/03/14 05:16:12;;;;;;;;;;;;;;;16.14;49.15;100499.13;5080890;28;1067;-47
2024/03/14 05:18:37;;;;;;;;;;;;;;;15.95;49.83;100499.69;5096054;28;1086;-46
2024/03/14 05:21:03;;;;;;;;;;;;;;;15.70;50.41;100501.31;5082300;28;2232;-47
2024/03/14 05:23:29;;;;;;;;;;;;;;;15.62;50.37;100509.28;5063839;28;1854;-47
2024/03/14 05:25:55;;;;;;;;;;;;;;;15.46;50.90;100503.78;5059820;28;2032;-46
2024/03/14 05:28:21;;;;;;;;;;;;;;;15.34;51.39;100514.19;5058559;28;1821;-44
2024/03/14 05:30:46;;;;;;;;;;;;;;;16.22;49.39;100512.28;5081268;28;1946;-45
2024/03/14 05:33:12;;;;;;;;;;;;;;;17.28;46.52;100516.81;5086204;28;1839;-45
2024/03/14 05:35:38;;;;;;;;;;;;;;;16.71;48.39;100511.56;5083580;28;2135;-50
2024/03/14 05:38:04;;;;;;;;;;;;;;;16.01;49.96;100511.47;5087348;28;1075;-48
2024/03/14 05:40:30;;;;;;;;;;;;;;;15.66;50.94;100511.19;5075819;28;1199;-47
2024/03/14 05:42:55;;;;;;;;;;;;;;;15.57;51.00;100518.28;5081488;28;984;-48
2024/03/14 05:45:21;;;;;;;;;;;;;;;16.68;48.52;100519.56;5083452;28;1913;-45
2024/03/14 05:47:48;;;;;;;;;;;;;;;17.61;46.33;100519.84;5075531;28;1213;-48
2024/03/14 05:50:13;;;;;;;;;;;;;;;16.56;48.83;100522.59;5088612;28;908;-50
2024/03/14 05:52:42;;;;;;;;;;;;;;;16.12;49.72;100518.59;5090149;28;1130;-50
2024/03/14 05:55:09;;;;;;;;;;;;;;;15.84;50.59;100528.22;5060534;28;1253;-44
2024/03/14 05:57:36;;;;;;;;;;;;;;;15.71;50.79;100527.66;5060164;28;1230;-46
2024/03/14 06:00:03;;;;;;;;;;;;;;;16.48;49.11;100529.50;5059392;28;1169;-48
2024/03/14 06:02:37;;;;;;;;;;;;;;;17.72;46.25;100529.66;5061415;28;1101;-45
2024/03/14 06:05:03;;;;;;;;;;;;;;;16.73;48.46;100536.84;5056982;28;1922;-47
2024/03/14 06:07:29;;;;;;;;;;;;;;;16.25;49.59;100536.41;5056232;28;2817;-46
2024/03/14 06:09:56;;;;;;;;;;;;;;;16.01;50.54;100534.22;5059909;28;1302;-51
2024/03/14 06:12:22;;;;;;;;;;;;;;;15.83;50.95;100540.28;5060790;28;1234;-52
2024/03/14 06:14:48;;;;;;;;;;;;;;;15.74;51.16;100546.28;5064990;28;1239;-49
2024/03/14 06:17:15;;;;;;;;;;;;;;;17.30;47.36;100547.56;5096814;28;1085;-49
2024/03/14 06:19:40;;;;;;;;;;;;;;;17.05;47.77;100552.06;5099012;28;1078;-48
2024/03/14 06:22:06;;;;;;;;;;;;;;;16.38;49.42;100549.56;5087343;28;1092;-50
2024/03/14 06:24:32;;;;;;;;;;;;;;;15.98;50.78;100559.47;5083683;28;1909;-47
2024/03/14 06:26:59;;;;;;;;;;;;;;;15.87;50.78;100557.84;5085780;28;1206;-47
2024/03/14 06:29:26;;;;;;;;;;;;;;;16.53;49.32;100556.91;5098889;28;1130;-51
2024/03/14 06:31:51;;;;;;;;;;;;;;;17.62;46.65;100562.75;5085589;28;1138;-47
2024/03/14 06:34:17;;;;;;;;;;;;;;;16.58;49.23;100558.84;5099302;28;1030;-52
2024/03/14 06:36:43;;;;;;;;;;;;;;;16.16;50.21;100570.97;5092187;28;2711;-52
2024/03/14 06:39:11;;;;;;;;;;;;;;;15.95;50.75;100573.75;5080760;28;925;-52
2024/03/14 06:41:36;;;;;;;;;;;;;;;15.72;51.33;100575.91;5092460;28;1075;-50
2024/03/14 06:44:02;;;;;;;;;;;;;;;16.80;48.97;100582.38;5091669;28;1174;-50
2024/03/14 06:46:28;;;;;;;;;;;;;;;17.81;46.44;100582.16;5067527;28;1984;-47
2024/03/14 06:48:54;;;;;;;;;;;;;;;16.67;48.80;100584.59;5098568;28;1058;-50
2024/03/14 06:51:20;;;;;;;;;;;;;;;16.21;50.04;100590.19;5096920;28;1071;-47
2024/03/14 06:53:46;;;;;;;;;;;;;;;15.98;50.71;100594.31;5085778;28;1031;-48
2024/03/14 06:56:13;;;;;;;;;;;;;;;15.80;51.09;100591.00;5097909;28;1048;-47
2024/03/14 06:58:39;;;;;;;;;;;;;;;15.79;51.38;100594.81;5079962;28;1202;-51
2024/03/14 07:01:05;;;;;;;;;;;;;;;17.38;47.39;100604.69;5066575;28;1269;-50
2024/03/14 07:03:30;;;;;;;;;;;;;;;17.41;47.26;100604.09;5042212;28;981;-54
2024/03/14 07:05:57;;;;;;;;;;;;;;;16.61;49.48;100613.19;5063806;28;1950;-50
2024/03/14 07:08:29;;;;;;;;;;;;;;;16.23;50.11;100605.28;5072531;28;1036;-49
2024/03/14 07:10:55;;;;;;;;;;;;;;;16.01;50.67;100600.06;5097556;28;1006;-47
2024/03/14 07:13:21;;;;;;;;;;;;;;;15.99;50.82;100599.53;5097790;28;1090;-49
2024/03/14 07:15:47;;;;;;;;;;;;;;;17.53;47.26;100605.69;5083247;28;1198;-48
2024/03/14 07:18:13;;;;;;;;;;;;;;;17.24;47.77;100601.72;5086102;28;1102;-47
2024/03/14 07:20:43;;;;;;;;;;;;;;;16.50;49.66;100606.06;5097424;28;1030;-47
2024/03/14 07:23:09;;;;;;;;;;;;;;;16.32;50.16;100615.69;5089157;28;1123;-48
2024/03/14 07:25:35;;;;;;;;;;;;;;;16.13;50.60;100616.25;5091646;28;1906;-49
2024/03/14 07:28:01;;;;;;;;;;;;;;;15.97;50.97;100615.41;5086405;28;1130;-52
2024/03/14 07:30:27;;;;;;;;;;;;;;;17.12;48.54;100617.72;5083860;28;1003;-55
2024/03/14 07:32:53;;;;;;;;;;;;;;;17.50;47.22;100617.25;5097722;28;1034;-52
2024/03/14 07:35:18;;;;;;;;;;;;;;;16.70;49.38;100614.25;5097353;28;2563;-50
2024/03/14 07:37:45;;;;;;;;;;;;;;;16.40;50.04;100618.69;5095130;28;1010;-50
2024/03/14 07:40:11;;;;;;;;;;;;;;;16.11;50.96;100620.38;5093255;28;1202;-48
2024/03/14 07:42:39;;;;;;;;;;;;;;;15.87;51.41;100612.66;5097850;28;1062;-49
2024/03/14 07:45:07;;;;;;;;;;;;;;;17.34;48.02;100620.09;5097327;28;1980;-52
2024/03/14 07:47:33;;;;;;;;;;;;;;;17.61;47.17;100624.34;5078502;28;1027;-49
2024/03/14 07:49:59;;;;;;;;;;;;;;;16.71;49.35;100624.13;5089271;28;1136;-52
2024/03/14 07:52:26;;;;;;;;;;;;;;;16.29;50.44;100628.03;5097186;28;1042;-49
2024/03/14 07:54:53;;;;;;;;;;;;;;;16.02;51.13;100626.41;5083288;28;1126;-49
2024/03/14 07:57:20;;;;;;;;;;;;;;;15.89;51.25;100626.91;5097645;28;1078;-50
2024/03/14 07:59:47;;;;;;;;;;;;;;;17.26;48.16;100623.44;5083445;28;1099;-50
2024/03/14 08:02:12;;;;;;;;;;;;;;;17.64;47.25;100620.22;5090874;28;1054;-49
2024/03/14 08:04:38;;;;;;;;;;;;;;;16.68;49.37;100621.94;5096619;28;1906;-51
2024/03/14 08:07:17;;;;;;;;;;;;;;;16.42;50.14;100629.41;5097470;28;2840;-50
2024/03/14 08:10:18;;;;;;;;;;;;;;;17.27;48.28;100630.56;5072621;28;1450;-50
2024/03/14 08:12:44;;;;;;;;;;;;;;;17.98;48.19;100628.53;5076975;28;2242;-50
2024/03/14 08:15:30;;;;;;;;;;;;;;;16.75;50.11;100636.22;5089646;28;1784;-48
2024/03/14 08:17:56;;;;;;;;;;;;;;;16.29;49.77;100639.00;5084854;28;2264;-48
2024/03/14 08:20:24;;;;;;;;;;;;;;;16.62;50.37;100639.53;5071948;28;1953;-48
2024/03/14 08:22:52;;;;;;;;;;;;;;;16.70;50.26;100638.94;5077948;28;1910;-49
2024/03/14 08:25:19;;;;;;;;;;;;;;;16.32;49.56;100643.94;5086985;28;2646;-50
2024/03/14 08:27:46;;;;;;;;;;;;;;;16.79;49.84;100644.72;5086874;28;2080;-50
2024/03/14 08:30:11;;;;;;;;;;;;;;;16.51;50.22;100643.38;5088814;28;1197;-51
2024/03/14 08:32:40;;;;;;;;;;;;;;;16.18;49.29;100643.66;5090465;28;1004;-48
2024/03/14 08:35:06;;;;;;;;;;;;;;;16.22;48.89;100644.78;5096765;28;1066;-49
2024/03/14 08:37:31;;;;;;;;;;;;;;;16.55;49.90;100649.97;5096576;28;1097;-52
2024/03/14 08:39:58;;;;;;;;;;;;;;;16.26;49.70;100645.06;5086976;28;844;-49
2024/03/14 08:42:31;;;;;;;;;;;;;;;17.71;48.99;100640.78;5096237;28;1042;-51
2024/03/14 08:44:58;;;;;;;;;;;;;;;16.60;50.13;100641.72;5083269;28;1905;-45
2024/03/14 08:47:23;;;;;;;;;;;;;;;17.54;49.58;100646.66;5088101;28;1091;-50
2024/03/14 08:49:49;;;;;;;;;;;;;;;17.48;49.67;100635.97;5091216;28;1481;-48
2024/03/14 08:52:15;;;;;;;;;;;;;;;16.69;50.11;100651.06;5086211;28;888;-52
2024/03/14 08:54:45;;;;;;;;;;;;;;;16.50;48.78;100644.50;5082786;28;1095;-51
2024/03/14 08:57:12;;;;;;;;;;;;;;;16.42;47.80;100649.44;5096045;28;2954;-48
2024/03/14 08:59:39;;;;;;;;;;;;;;;17.00;49.20;100647.41;5082600;28;1111;-44
2024/03/14 09:02:09;;;;;;;;;;;;;;;16.90;50.20;100645.53;5086537;28;1015;-47
2024/03/14 09:04:44;;;;;;;;;;;;;;;16.51;49.02;100646.97;5084452;28;1233;-50
2024/03/14 09:07:13;;;;;;;;;;;;;;;16.64;50.01;100648.31;5096209;28;1026;-49
2024/03/14 09:09:40;;;;;;;;;;;;;;;17.60;49.45;100645.53;5082297;28;1039;-49
2024/03/14 09:12:48;;;;;;;;;;;;;;;16.64;49.84;100653.81;5083758;28;1218;-52
2024/03/14 09:14:55;;;;;;;;;;;;;;;16.39;48.81;100649.16;5062296;28;1469;-51
2024/03/14 09:17:22;;;;;;;;;;;;;;;16.29;48.51;100643.69;5076988;28;1567;-52
2024/03/14 09:19:47;;;;;;;;;;;;;;;17.73;49.41;100646.81;5083654;28;1107;-50
2024/03/14 09:22:13;;;;;;;;;;;;;;;16.76;50.06;100651.59;5095885;28;995;-47
2024/03/14 09:24:39;;;;;;;;;;;;;;;16.51;49.18;100648.88;5061405;28;1905;-46
2024/03/14 09:27:06;;;;;;;;;;;;;;;17.03;50.02;100642.19;5079118;28;2713;-49
2024/03/14 09:29:32;;;;;;;;;;;;;;;16.54;49.76;100653.81;5096210;28;1050;-45
2024/03/14 09:31:59;;;;;;;;;;;;;;;16.38;49.33;100653.84;5087744;28;1205;-50
2024/03/14 09:34:25;;;;;;;;;;;;;;;17.55;49.07;100645.53;5089320;28;1066;-42
2024/03/14 09:36:53;;;;;;;;;;;;;;;16.73;49.70;100646.66;5084451;28;1035;-50
2024/03/14 09:39:21;;;;;;;;;;;;;;;16.47;48.46;100650.53;5089569;28;1051;-52
2024/03/14 09:41:47;;;;;;;;;;;;;;;16.62;49.27;100650.53;5077015;28;1119;-48
2024/03/14 09:44:17;;;;;;;;;;;;;;;17.37;49.35;100646.19;5091484;28;1169;-52
2024/03/14 09:46:45;;;;;;;;;;;;;;;16.59;49.64;100660.13;5085922;28;1906;-49
2024/03/14 09:49:12;;;;;;;;;;;;;;;16.41;48.45;100655.19;5081922;28;1035;-49
2024/03/14 09:51:38;;;;;;;;;;;;;;;17.77;48.94;100658.09;5090076;28;1077;-50
2024/03/14 09:54:03;;;;;;;;;;;;;;;16.88;49.64;100651.31;5079543;28;1218;-51
2024/03/14 09:56:29;;;;;;;;;;;;;;;16.57;48.73;100656.00;5098888;28;2444;-52
2024/03/14 09:58:56;;;;;;;;;;;;;;;17.11;49.57;100657.31;5085986;28;1198;-50
2024/03/14 10:01:22;;;;;;;;;;;;;;;17.01;49.42;100649.91;5081397;28;1034;-49
2024/03/14 10:03:47;;;;;;;;;;;;;;;16.68;49.51;100654.09;5074514;28;1154;-49
2024/03/14 10:06:17;;;;;;;;;;;;;;;17.93;48.28;100651.38;5060061;28;1986;-51
2024/03/14 10:08:50;;;;;;;;;;;;;;;16.97;49.38;100648.84;5061021;28;1219;-50
2024/03/14 10:11:18;;;;;;;;;;;;;;;16.57;49.01;100656.00;5061677;28;1084;-52
2024/03/14 10:13:46;;;;;;;;;;;;;;;16.99;49.58;100656.78;5061231;28;1258;-46
2024/03/14 10:16:12;;;;;;;;;;;;;;;17.23;49.70;100657.78;5063537;28;1277;-49
2024/03/14 10:18:39;;;;;;;;;;;;;;;16.74;49.53;100653.78;5060328;28;1278;-52
2024/03/14 10:21:05;;;;;;;;;;;;;;;17.62;49.45;100653.50;5062174;28;1191;-51
2024/03/14 10:23:32;;;;;;;;;;;;;;;16.85;49.59;100651.03;5075014;28;1286;-50
2024/03/14 10:25:57;;;;;;;;;;;;;;;18.07;48.67;100653.50;5050272;28;2492;-50
2024/03/14 10:28:28;;;;;;;;;;;;;;;18.04;48.93;100654.91;5060952;28;1008;-47
2024/03/14 10:30:57;;;;;;;;;;;;;;;17.18;49.36;100646.84;5071901;28;1016;-43
2024/03/14 10:33:26;;;;;;;;;;;;;;;16.85;48.72;100654.59;5078677;28;1031;-50
2024/03/14 10:35:56;;;;;;;;;;;;;;;16.63;48.23;100648.59;5081055;28;1023;-48
2024/03/14 10:38:25;;;;;;;;;;;;;;;16.42;47.63;100648.59;5088770;28;1086;-47
2024/03/14 10:40:51;;;;;;;;;;;;;;;16.24;47.26;100652.72;5073939;28;1123;-47
2024/03/14 10:43:17;;;;;;;;;;;;;;;16.20;47.01;100641.50;5061136;28;1134;-47
2024/03/14 10:45:43;;;;;;;;;;;;;;;16.07;46.71;100648.34;5065175;28;1902;-44
2024/03/14 10:48:08;;;;;;;;;;;;;;;15.95;46.58;100644.19;5058253;28;1254;-47
2024/03/14 10:50:34;;;;;;;;;;;;;;;15.95;46.11;100644.19;5042160;28;1239;-46
2024/03/14 10:53:00;;;;;;;;;;;;;;;16.84;48.30;100652.13;5046225;28;1254;-52
2024/03/14 10:55:30;;;;;;;;;;;;;;;16.68;49.51;100643.91;5088185;28;1087;-47
2024/03/14 10:57:57;;;;;;;;;;;;;;;16.22;48.84;100646.69;5074553;28;1086;-47
2024/03/14 11:00:23;;;;;;;;;;;;;;;15.99;48.49;100646.16;5059621;28;1111;-49
2024/03/14 11:02:53;;;;;;;;;;;;;;;16.40;48.83;100653.56;5061754;28;1191;-47
2024/03/14 11:05:22;;;;;;;;;;;;;;;16.41;49.29;100649.69;5066133;28;1913;-48
2024/03/14 11:07:51;;;;;;;;;;;;;;;16.05;48.95;100647.78;5058213;28;1191;-49
2024/03/14 11:10:35;;;;;;;;;;;;;;;16.40;49.14;100650.81;5060125;28;1218;-44
2024/03/14 11:13:01;;;;;;;;;;;;;;;17.17;49.37;100652.63;5051214;28;1259;-43
2024/03/14 11:15:27;;;;;;;;;;;;;;;16.44;49.65;100654.66;5080013;28;960;-47
2024/03/14 11:17:55;;;;;;;;;;;;;;;16.24;48.57;100649.97;5061491;28;1163;-44
2024/03/14 11:20:25;;;;;;;;;;;;;;;16.08;47.87;100643.69;5065733;28;896;-46
2024/03/14 11:22:53;;;;;;;;;;;;;;;16.66;49.30;100642.53;5094702;28;1011;-49
2024/03/14 11:25:24;;;;;;;;;;;;;;;16.80;49.70;100648.28;5086041;28;1996;-51
2024/03/14 11:27:50;;;;;;;;;;;;;;;16.23;49.34;100651.09;5074658;28;2223;-49
2024/03/14 11:30:21;;;;;;;;;;;;;;;16.12;48.60;100652.16;5086880;28;1194;-46
2024/03/14 11:32:49;;;;;;;;;;;;;;;15.93;47.66;100649.16;5063097;28;1134;-45
2024/03/14 11:35:47;;;;;;;;;;;;;;;16.36;48.50;100650.53;5091197;28;993;-47
2024/03/14 11:38:18;;;;;;;;;;;;;;;16.27;49.42;100652.19;5033201;28;1234;-46
2024/03/14 11:40:47;;;;;;;;;;;;;;;15.99;48.83;100650.78;5068873;28;1167;-49
2024/03/14 11:43:16;;;;;;;;;;;;;;;15.87;47.91;100645.56;5059942;28;1138;-48
2024/03/14 11:45:42;;;;;;;;;;;;;;;17.22;48.72;100655.31;5076070;28;1906;-45
2024/03/14 11:48:08;;;;;;;;;;;;;;;17.36;49.15;100656.38;5055178;28;1227;-47
2024/03/14 11:50:38;;;;;;;;;;;;;;;16.55;49.87;100663.69;5038169;28;1246;-43
2024/03/14 11:53:11;;;;;;;;;;;;;;;16.30;48.99;100662.63;5059379;28;1235;-46
2024/03/14 11:55:38;;;;;;;;;;;;;;;16.09;48.37;100670.03;5058741;28;1907;-45
2024/03/14 11:58:15;;;;;;;;;;;;;;;17.23;49.59;100667.97;5057811;28;1203;-48
2024/03/14 12:00:41;;;;;;;;;;;;;;;16.56;50.20;100668.09;5056022;28;1281;-48
2024/03/14 12:03:07;;;;;;;;;;;;;;;16.20;49.44;100670.81;5056375;28;1203;-50
2024/03/14 12:05:38;;;;;;;;;;;;;;;16.10;48.41;100674.38;5060227;28;1981;-49
2024/03/14 12:08:04;;;;;;;;;;;;;;;15.87;48.02;100670.25;5056525;28;1174;-44
2024/03/14 12:10:29;;;;;;;;;;;;;;;15.76;47.39;100668.56;5040258;28;1295;-46
2024/03/14 12:12:57;;;;;;;;;;;;;;;15.83;46.75;100669.97;5037574;28;1196;-46
2024/03/14 12:15:23;;;;;;;;;;;;;;;15.89;47.50;100671.63;5057187;28;1262;-50
2024/03/14 12:17:57;;;;;;;;;;;;;;;16.89;49.17;100669.44;5057531;28;945;-47
2024/03/14 12:20:28;;;;;;;;;;;;;;;16.08;49.55;100674.66;5087829;28;988;-47
2024/03/14 12:22:56;;;;;;;;;;;;;;;16.02;49.19;100677.66;5086265;28;1040;-48
2024/03/14 12:25:22;;;;;;;;;;;;;;;17.51;48.73;100682.16;5089589;28;1968;-50
2024/03/14 12:27:50;;;;;;;;;;;;;;;16.48;50.06;100685.94;5085323;28;2816;-46
2024/03/14 12:30:16;;;;;;;;;;;;;;;16.15;49.00;100679.06;5093894;28;1001;-48
2024/03/14 12:32:43;;;;;;;;;;;;;;;15.99;48.41;100695.50;5063583;28;1162;-46
2024/03/14 12:35:09;;;;;;;;;;;;;;;17.28;49.05;100688.00;5065483;28;1127;-47
2024/03/14 12:37:35;;;;;;;;;;;;;;;16.32;49.92;100693.34;5062675;28;1001;-49
2024/03/14 12:40:01;;;;;;;;;;;;;;;16.14;49.08;100689.19;5080834;28;1170;-49
2024/03/14 12:42:27;;;;;;;;;;;;;;;17.37;49.45;100695.66;5072258;28;1151;-50
2024/03/14 12:44:52;;;;;;;;;;;;;;;16.68;49.86;100693.34;5083848;28;1985;-48
2024/03/14 12:47:19;;;;;;;;;;;;;;;16.20;49.26;100693.63;5086243;28;1003;-47
2024/03/14 12:49:45;;;;;;;;;;;;;;;16.43;49.68;100696.91;5039143;28;1278;-44